createdAt,value
2019-05-28T00:00:02.248Z,99.99
2019-05-28T00:00:54.392Z,99.99
2019-05-28T00:01:54.293Z,99.99
2019-05-28T00:02:54.194Z,99.99
2019-05-28T00:03:54.121Z,99.99
2019-05-28T00:04:54.016Z,99.99
2019-05-28T00:05:53.938Z,99.99
2019-05-28T00:06:53.847Z,99.99
2019-05-28T00:07:53.749Z,99.99
2019-05-28T00:08:53.665Z,99.99
2019-05-28T00:09:53.597Z,99.99
2019-05-28T00:10:53.482Z,99.99
2019-05-28T00:11:53.397Z,99.99
2019-05-28T00:12:53.316Z,99.99
2019-05-28T00:13:53.222Z,99.99
2019-05-28T00:14:53.131Z,99.99
2019-05-28T00:15:53.054Z,99.99
2019-05-28T00:16:52.966Z,99.99
2019-05-28T00:17:52.873Z,99.99
2019-05-28T00:18:52.794Z,99.99
2019-05-28T00:19:52.708Z,99.99
2019-05-28T00:20:52.606Z,99.99
2019-05-28T00:21:52.520Z,99.99
2019-05-28T00:22:52.433Z,99.99
2019-05-28T00:23:52.352Z,99.99
2019-05-28T00:24:52.260Z,99.99
2019-05-28T00:25:52.165Z,99.99
2019-05-28T00:26:52.088Z,99.52
2019-05-28T00:27:52.013Z,99.71
2019-05-28T00:28:51.919Z,99.52
2019-05-28T00:29:51.812Z,99.71
2019-05-28T00:30:51.724Z,99.52
2019-05-28T00:31:51.654Z,99.80
2019-05-28T00:32:51.552Z,99.32
2019-05-28T00:33:51.465Z,99.61
2019-05-28T00:34:51.370Z,99.99
2019-05-28T00:35:51.301Z,99.99
2019-05-28T00:36:51.196Z,99.99
2019-05-28T00:37:51.118Z,99.80
2019-05-28T00:38:51.030Z,99.32
2019-05-28T00:39:50.928Z,99.13
2019-05-28T00:40:50.852Z,99.42
2019-05-28T00:41:50.762Z,99.42
2019-05-28T00:42:50.683Z,99.52
2019-05-28T00:43:50.579Z,99.42
2019-05-28T00:44:50.492Z,99.32
2019-05-28T00:45:50.406Z,99.80
2019-05-28T00:46:50.319Z,99.71
2019-05-28T00:47:50.228Z,99.80
2019-05-28T00:48:50.141Z,99.80
2019-05-28T00:49:50.055Z,99.99
2019-05-28T00:50:49.963Z,99.99
2019-05-28T00:51:49.887Z,99.99
2019-05-28T00:52:49.778Z,99.99
2019-05-28T00:53:49.702Z,99.71
2019-05-28T00:54:49.623Z,99.99
2019-05-28T00:55:49.520Z,99.52
2019-05-28T00:56:49.439Z,99.42
2019-05-28T00:57:49.344Z,99.42
2019-05-28T00:58:49.265Z,99.23
2019-05-28T00:59:49.173Z,99.32
2019-05-28T01:00:49.125Z,99.52
2019-05-28T01:01:49.003Z,99.90
2019-05-28T01:02:48.901Z,99.71
2019-05-28T01:03:48.821Z,99.71
2019-05-28T01:04:48.743Z,99.80
2019-05-28T01:05:48.645Z,99.71
2019-05-28T01:06:48.563Z,99.52
2019-05-28T01:07:48.474Z,99.90
2019-05-28T01:08:48.375Z,99.71
2019-05-28T01:09:48.299Z,99.80
2019-05-28T01:10:48.206Z,99.99
2019-05-28T01:11:48.110Z,99.99
2019-05-28T01:12:48.025Z,99.99
2019-05-28T01:13:47.928Z,99.99
2019-05-28T01:14:47.858Z,99.99
2019-05-28T01:15:47.759Z,99.99
2019-05-28T01:16:47.661Z,99.99
2019-05-28T01:17:47.587Z,99.99
2019-05-28T01:18:47.506Z,99.99
2019-05-28T01:19:47.412Z,99.99
2019-05-28T01:20:47.317Z,99.99
2019-05-28T01:21:47.234Z,99.99
2019-05-28T01:22:47.147Z,99.99
2019-05-28T01:23:47.053Z,99.99
2019-05-28T01:24:46.955Z,99.99
2019-05-28T01:25:46.906Z,99.99
2019-05-28T01:26:46.788Z,99.99
2019-05-28T01:27:46.743Z,99.99
2019-05-28T01:28:46.621Z,99.99
2019-05-28T01:29:46.522Z,99.99
2019-05-28T01:30:56.006Z,99.99
2019-05-28T01:31:46.345Z,99.99
2019-05-28T01:32:46.259Z,99.99
2019-05-28T01:33:46.183Z,99.99
2019-05-28T01:34:46.084Z,99.99
2019-05-28T01:35:46.009Z,99.99
2019-05-28T01:36:45.902Z,99.99
2019-05-28T01:37:45.819Z,99.99
2019-05-28T01:38:45.721Z,99.99
2019-05-28T01:39:45.637Z,99.99
2019-05-28T01:40:45.552Z,99.99
2019-05-28T01:41:45.470Z,99.99
2019-05-28T01:42:45.370Z,99.99
2019-05-28T01:43:45.287Z,99.99
2019-05-28T01:44:45.199Z,99.99
2019-05-28T01:45:45.108Z,99.99
2019-05-28T01:46:45.044Z,99.99
2019-05-28T01:47:44.935Z,99.99
2019-05-28T01:48:44.839Z,99.99
2019-05-28T01:49:44.752Z,99.99
2019-05-28T01:50:44.674Z,99.99
2019-05-28T01:51:44.591Z,99.99
2019-05-28T01:52:44.495Z,99.99
2019-05-28T01:53:44.412Z,99.99
2019-05-28T01:54:44.309Z,99.99
2019-05-28T01:55:44.226Z,99.99
2019-05-28T01:56:44.148Z,99.99
2019-05-28T01:57:44.063Z,99.99
2019-05-28T01:58:43.969Z,99.99
2019-05-28T01:59:43.874Z,99.99
2019-05-28T02:00:43.781Z,99.99
2019-05-28T02:01:43.707Z,99.99
2019-05-28T02:02:43.635Z,99.99
2019-05-28T02:03:43.531Z,99.99
2019-05-28T02:04:43.449Z,99.99
2019-05-28T02:05:43.403Z,99.99
2019-05-28T02:06:43.264Z,99.99
2019-05-28T02:07:43.162Z,99.99
2019-05-28T02:08:43.067Z,99.99
2019-05-28T02:09:42.995Z,99.99
2019-05-28T02:10:42.896Z,99.99
2019-05-28T02:11:42.821Z,99.99
2019-05-28T02:12:42.746Z,99.99
2019-05-28T02:13:42.637Z,99.99
2019-05-28T02:14:42.575Z,99.99
2019-05-28T02:15:42.457Z,99.99
2019-05-28T02:16:42.391Z,99.99
2019-05-28T02:17:42.316Z,99.99
2019-05-28T02:18:42.225Z,99.99
2019-05-28T02:19:42.102Z,99.99
2019-05-28T02:20:42.013Z,99.99
2019-05-28T02:21:41.928Z,99.99
2019-05-28T02:22:41.857Z,99.99
2019-05-28T02:23:41.764Z,99.99
2019-05-28T02:24:41.662Z,99.99
2019-05-28T02:25:41.573Z,99.99
2019-05-28T02:26:41.495Z,99.99
2019-05-28T02:27:41.402Z,99.99
2019-05-28T02:28:41.309Z,99.99
2019-05-28T02:29:41.226Z,99.99
2019-05-28T02:30:41.144Z,99.99
2019-05-28T02:31:41.065Z,99.99
2019-05-28T02:32:40.955Z,99.99
2019-05-28T02:33:40.872Z,99.99
2019-05-28T02:34:40.793Z,99.99
2019-05-28T02:35:40.707Z,99.99
2019-05-28T02:36:40.607Z,99.99
2019-05-28T02:37:40.508Z,99.99
2019-05-28T02:38:40.447Z,99.99
2019-05-28T02:39:40.341Z,99.99
2019-05-28T02:40:40.259Z,99.99
2019-05-28T02:41:40.171Z,99.99
2019-05-28T02:42:40.098Z,99.99
2019-05-28T02:43:40.009Z,99.99
2019-05-28T02:44:39.894Z,99.99
2019-05-28T02:45:39.815Z,99.99
2019-05-28T02:46:39.720Z,99.99
2019-05-28T02:47:39.628Z,99.99
2019-05-28T02:48:39.552Z,99.99
2019-05-28T02:49:39.461Z,99.99
2019-05-28T02:50:39.363Z,99.99
2019-05-28T02:51:39.270Z,99.99
2019-05-28T02:52:39.187Z,99.99
2019-05-28T02:53:39.107Z,99.99
2019-05-28T02:54:39.011Z,99.99
2019-05-28T02:55:38.917Z,99.99
2019-05-28T02:56:38.842Z,99.99
2019-05-28T02:57:38.741Z,99.99
2019-05-28T02:58:38.671Z,99.99
2019-05-28T02:59:38.580Z,99.99
2019-05-28T03:00:38.514Z,99.99
2019-05-28T03:01:44.267Z,99.99
2019-05-28T03:02:38.305Z,99.99
2019-05-28T03:03:38.207Z,99.99
2019-05-28T03:04:38.124Z,99.99
2019-05-28T03:05:38.033Z,99.99
2019-05-28T03:06:37.961Z,99.99
2019-05-28T03:07:37.878Z,99.99
2019-05-28T03:08:37.768Z,99.99
2019-05-28T03:09:37.700Z,99.99
2019-05-28T03:11:01.562Z,99.99
2019-05-28T03:11:37.519Z,99.99
2019-05-28T03:12:37.436Z,99.99
2019-05-28T03:13:37.336Z,99.99
2019-05-28T03:14:37.248Z,99.99
2019-05-28T03:15:37.176Z,99.99
2019-05-28T03:16:37.067Z,99.99
2019-05-28T03:17:36.970Z,99.99
2019-05-28T03:18:36.894Z,99.99
2019-05-28T03:19:36.798Z,99.99
2019-05-28T03:20:36.707Z,99.99
2019-05-28T03:21:36.626Z,99.99
2019-05-28T03:22:36.530Z,99.99
2019-05-28T03:23:36.510Z,99.99
2019-05-28T03:24:36.352Z,99.99
2019-05-28T03:25:36.274Z,99.99
2019-05-28T03:26:36.196Z,99.99
2019-05-28T03:27:36.090Z,99.99
2019-05-28T03:28:36.010Z,99.99
2019-05-28T03:29:35.919Z,99.99
2019-05-28T03:30:35.825Z,99.99
2019-05-28T03:31:35.736Z,99.99
2019-05-28T03:32:35.653Z,99.99
2019-05-28T03:33:35.565Z,99.99
2019-05-28T03:34:35.464Z,99.99
2019-05-28T03:35:35.392Z,99.99
2019-05-28T03:36:35.298Z,99.99
2019-05-28T03:37:35.202Z,99.99
2019-05-28T03:38:35.126Z,99.99
2019-05-28T03:39:35.036Z,99.99
2019-05-28T03:40:34.936Z,99.99
2019-05-28T03:41:34.849Z,99.99
2019-05-28T03:42:34.758Z,99.99
2019-05-28T03:43:34.680Z,99.99
2019-05-28T03:44:34.595Z,99.99
2019-05-28T03:45:34.498Z,99.99
2019-05-28T03:46:34.410Z,99.99
2019-05-28T03:47:34.321Z,99.99
2019-05-28T03:48:34.242Z,99.99
2019-05-28T03:49:34.153Z,99.99
2019-05-28T03:50:34.055Z,99.99
2019-05-28T03:51:33.989Z,99.99
2019-05-28T03:52:33.878Z,99.99
2019-05-28T03:53:33.797Z,99.99
2019-05-28T03:54:33.700Z,99.99
2019-05-28T03:55:33.617Z,99.99
2019-05-28T03:56:33.519Z,99.99
2019-05-28T03:57:33.443Z,99.99
2019-05-28T03:58:33.353Z,99.99
2019-05-28T03:59:33.265Z,99.99
2019-05-28T04:00:33.171Z,99.99
2019-05-28T04:01:33.082Z,99.99
2019-05-28T04:02:33.031Z,99.99
2019-05-28T04:03:32.901Z,99.99
2019-05-28T04:04:32.819Z,99.99
2019-05-28T04:05:32.725Z,99.99
2019-05-28T04:06:32.731Z,99.99
2019-05-28T04:07:32.553Z,99.99
2019-05-28T04:08:32.457Z,99.99
2019-05-28T04:09:33.892Z,99.99
2019-05-28T04:10:32.285Z,99.99
2019-05-28T04:11:44.395Z,99.99
2019-05-28T04:12:32.107Z,99.99
2019-05-28T04:13:32.055Z,99.99
2019-05-28T04:14:31.935Z,99.99
2019-05-28T04:15:31.841Z,99.99
2019-05-28T04:16:31.763Z,99.99
2019-05-28T04:17:31.662Z,99.99
2019-05-28T04:18:31.578Z,99.99
2019-05-28T04:19:31.488Z,99.99
2019-05-28T04:20:31.401Z,99.99
2019-05-28T04:21:31.333Z,99.99
2019-05-28T04:22:31.229Z,99.99
2019-05-28T04:23:31.135Z,99.99
2019-05-28T04:24:31.069Z,99.99
2019-05-28T04:25:30.964Z,99.99
2019-05-28T04:26:30.885Z,99.99
2019-05-28T04:27:30.836Z,99.99
2019-05-28T04:28:30.706Z,99.99
2019-05-28T04:29:30.620Z,99.99
2019-05-28T04:30:30.525Z,99.99
2019-05-28T04:31:30.435Z,99.99
2019-05-28T04:32:39.882Z,99.99
2019-05-28T04:33:30.250Z,99.99
2019-05-28T04:34:30.155Z,99.99
2019-05-28T04:35:30.080Z,99.99
2019-05-28T04:36:29.993Z,99.99
2019-05-28T04:37:29.894Z,99.99
2019-05-28T04:38:29.824Z,99.99
2019-05-28T04:39:29.727Z,99.99
2019-05-28T04:40:29.638Z,99.99
2019-05-28T04:41:29.551Z,99.99
2019-05-28T04:42:29.465Z,99.99
2019-05-28T04:43:29.366Z,99.99
2019-05-28T04:44:29.297Z,99.99
2019-05-28T04:45:29.204Z,99.99
2019-05-28T04:46:29.106Z,99.99
2019-05-28T04:47:29.081Z,99.99
2019-05-28T04:48:28.984Z,99.99
2019-05-28T04:49:28.840Z,99.99
2019-05-28T04:50:28.769Z,99.99
2019-05-28T04:51:28.690Z,99.99
2019-05-28T04:52:30.700Z,99.99
2019-05-28T04:53:28.500Z,99.99
2019-05-28T04:54:28.394Z,99.99
2019-05-28T04:55:28.334Z,99.99
2019-05-28T04:56:28.228Z,99.99
2019-05-28T04:57:28.136Z,99.99
2019-05-28T04:58:28.051Z,99.99
2019-05-28T04:59:27.957Z,99.99
2019-05-28T05:00:27.875Z,99.99
2019-05-28T05:01:27.802Z,99.99
2019-05-28T05:02:27.707Z,99.99
2019-05-28T05:03:27.607Z,99.99
2019-05-28T05:04:27.521Z,99.85
2019-05-28T05:05:27.434Z,99.33
2019-05-28T05:06:27.347Z,99.57
2019-05-28T05:07:27.260Z,99.99
2019-05-28T05:08:27.191Z,99.99
2019-05-28T05:09:27.100Z,99.99
2019-05-28T05:10:26.997Z,99.95
2019-05-28T05:11:26.925Z,99.99
2019-05-28T05:12:26.824Z,99.99
2019-05-28T05:13:26.745Z,99.57
2019-05-28T05:14:26.652Z,99.66
2019-05-28T05:15:26.548Z,99.38
2019-05-28T05:16:26.467Z,99.57
2019-05-28T05:17:26.385Z,99.09
2019-05-28T05:18:26.306Z,98.71
2019-05-28T05:19:26.215Z,98.33
2019-05-28T05:20:26.118Z,98.04
2019-05-28T05:21:26.025Z,98.28
2019-05-28T05:22:25.939Z,98.23
2019-05-28T05:23:25.877Z,97.80
2019-05-28T05:24:25.765Z,97.99
2019-05-28T05:25:25.690Z,98.09
2019-05-28T05:26:25.585Z,97.90
2019-05-28T05:27:25.503Z,97.90
2019-05-28T05:28:25.412Z,97.80
2019-05-28T05:29:25.327Z,97.42
2019-05-28T05:30:25.237Z,97.61
2019-05-28T05:31:25.161Z,97.80
2019-05-28T05:32:27.739Z,97.99
2019-05-28T05:33:24.983Z,97.99
2019-05-28T05:34:24.894Z,98.09
2019-05-28T05:35:24.846Z,97.52
2019-05-28T05:36:24.709Z,97.52
2019-05-28T05:37:24.629Z,97.13
2019-05-28T05:38:24.551Z,96.56
2019-05-28T05:39:24.457Z,96.56
2019-05-28T05:40:24.376Z,95.51
2019-05-28T05:41:24.273Z,95.03
2019-05-28T05:42:24.187Z,95.03
2019-05-28T05:43:24.105Z,95.22
2019-05-28T05:44:24.015Z,95.32
2019-05-28T05:45:23.940Z,95.32
2019-05-28T05:46:23.837Z,94.84
2019-05-28T05:47:23.753Z,94.93
2019-05-28T05:48:23.668Z,94.65
2019-05-28T05:49:23.586Z,94.89
2019-05-28T05:50:23.495Z,94.46
2019-05-28T05:51:23.443Z,94.55
2019-05-28T05:52:23.311Z,94.12
2019-05-28T05:53:23.226Z,94.07
2019-05-28T05:54:23.144Z,93.84
2019-05-28T05:55:23.058Z,93.64
2019-05-28T05:56:22.971Z,94.31
2019-05-28T05:57:22.887Z,94.50
2019-05-28T05:58:22.788Z,93.45
2019-05-28T05:59:22.731Z,92.78
2019-05-28T06:00:22.628Z,92.30
2019-05-28T06:01:22.527Z,92.11
2019-05-28T06:02:22.444Z,91.83
2019-05-28T06:03:39.165Z,91.44
2019-05-28T06:04:22.266Z,91.06
2019-05-28T06:05:22.186Z,90.58
2019-05-28T06:06:22.092Z,90.30
2019-05-28T06:07:22.023Z,90.39
2019-05-28T06:08:21.912Z,90.87
2019-05-28T06:09:21.831Z,91.06
2019-05-28T06:10:21.744Z,90.87
2019-05-28T06:11:21.664Z,90.30
2019-05-28T06:12:21.570Z,91.16
2019-05-28T06:13:21.484Z,91.68
2019-05-28T06:14:21.391Z,90.92
2019-05-28T06:15:21.324Z,91.02
2019-05-28T06:16:21.219Z,92.07
2019-05-28T06:17:21.138Z,92.35
2019-05-28T06:18:21.056Z,92.69
2019-05-28T06:19:20.984Z,92.49
2019-05-28T06:20:20.872Z,92.11
2019-05-28T06:21:20.786Z,91.35
2019-05-28T06:22:20.712Z,91.92
2019-05-28T06:23:20.611Z,92.11
2019-05-28T06:24:20.524Z,92.11
2019-05-28T06:25:20.438Z,91.44
2019-05-28T06:26:20.348Z,91.16
2019-05-28T06:27:20.268Z,92.11
2019-05-28T06:28:20.174Z,91.53
2019-05-28T06:29:20.086Z,91.53
2019-05-28T06:30:20.015Z,91.63
2019-05-28T06:31:19.904Z,92.02
2019-05-28T06:32:19.828Z,92.30
2019-05-28T06:33:19.753Z,92.40
2019-05-28T06:34:19.648Z,92.59
2019-05-28T06:35:19.577Z,92.88
2019-05-28T06:36:19.530Z,92.69
2019-05-28T06:37:19.395Z,92.40
2019-05-28T06:38:19.377Z,93.07
2019-05-28T06:39:19.227Z,93.60
2019-05-28T06:40:19.132Z,93.64
2019-05-28T06:41:19.039Z,93.55
2019-05-28T06:42:18.963Z,93.35
2019-05-28T06:43:18.874Z,93.07
2019-05-28T06:44:18.777Z,93.64
2019-05-28T06:45:18.689Z,93.45
2019-05-28T06:46:18.612Z,93.64
2019-05-28T06:47:18.514Z,93.64
2019-05-28T06:48:18.438Z,93.74
2019-05-28T06:49:18.365Z,93.35
2019-05-28T06:50:18.253Z,93.45
2019-05-28T06:51:18.178Z,93.45
2019-05-28T06:52:18.081Z,92.59
2019-05-28T06:53:18.007Z,92.59
2019-05-28T06:54:17.918Z,93.45
2019-05-28T06:55:18.002Z,94.21
2019-05-28T06:56:17.737Z,93.16
2019-05-28T06:57:22.770Z,93.55
2019-05-28T06:58:17.560Z,93.45
2019-05-28T06:59:17.463Z,93.45
2019-05-28T07:00:17.378Z,93.64
2019-05-28T07:01:17.301Z,93.07
2019-05-28T07:02:17.207Z,92.30
2019-05-28T07:03:17.143Z,92.40
2019-05-28T07:04:31.860Z,91.77
2019-05-28T07:05:16.957Z,92.16
2019-05-28T07:06:16.855Z,92.25
2019-05-28T07:07:16.769Z,92.35
2019-05-28T07:08:16.690Z,92.35
2019-05-28T07:09:16.675Z,92.54
2019-05-28T07:10:16.525Z,92.54
2019-05-28T07:11:16.961Z,92.63
2019-05-28T07:12:18.250Z,90.91
2019-05-28T07:13:16.249Z,91.44
2019-05-28T07:14:16.237Z,90.72
2019-05-28T07:15:16.076Z,91.15
2019-05-28T07:16:16.031Z,90.19
2019-05-28T07:17:15.908Z,89.43
2019-05-28T07:18:15.815Z,89.14
2019-05-28T07:19:24.479Z,88.80
2019-05-28T07:20:15.661Z,88.70
2019-05-28T07:21:15.557Z,88.90
2019-05-28T07:22:15.465Z,88.80
2019-05-28T07:23:15.386Z,87.37
2019-05-28T07:24:15.293Z,87.55
2019-05-28T07:25:15.218Z,87.74
2019-05-28T07:26:15.127Z,88.37
2019-05-28T07:27:15.059Z,89.14
2019-05-28T07:28:15.462Z,89.33
2019-05-28T07:29:14.870Z,88.09
2019-05-28T07:30:14.773Z,88.47
2019-05-28T07:31:14.691Z,87.51
2019-05-28T07:32:14.619Z,87.51
2019-05-28T07:33:14.530Z,88.09
2019-05-28T07:34:29.480Z,88.32
2019-05-28T07:35:14.350Z,88.61
2019-05-28T07:36:14.260Z,88.03
2019-05-28T07:37:14.202Z,86.35
2019-05-28T07:38:14.083Z,85.21
2019-05-28T07:39:14.014Z,85.06
2019-05-28T07:40:30.525Z,87.17
2019-05-28T07:41:13.825Z,88.51
2019-05-28T07:42:13.739Z,88.76
2019-05-28T07:43:13.654Z,89.86
2019-05-28T07:44:13.575Z,90.05
2019-05-28T07:45:13.568Z,89.57
2019-05-28T07:46:13.416Z,89.57
2019-05-28T07:47:13.307Z,88.80
2019-05-28T07:48:13.220Z,88.61
2019-05-28T07:49:13.141Z,88.90
2019-05-28T07:50:13.055Z,88.90
2019-05-28T07:51:12.968Z,88.90
2019-05-28T07:52:12.882Z,89.47
2019-05-28T07:53:12.827Z,89.95
2019-05-28T07:54:12.716Z,89.76
2019-05-28T07:55:12.624Z,89.66
2019-05-28T07:56:12.568Z,89.28
2019-05-28T07:57:12.470Z,91.05
2019-05-28T07:58:12.360Z,89.75
2019-05-28T07:59:12.273Z,87.74
2019-05-28T08:00:12.190Z,85.63
2019-05-28T08:01:12.113Z,85.77
2019-05-28T08:02:12.032Z,85.58
2019-05-28T08:03:11.924Z,85.28
2019-05-28T08:04:11.841Z,85.28
2019-05-28T08:05:16.922Z,84.58
2019-05-28T08:06:11.679Z,85.34
2019-05-28T08:07:11.592Z,86.01
2019-05-28T08:08:11.503Z,85.82
2019-05-28T08:09:11.420Z,86.58
2019-05-28T08:10:11.337Z,87.84
2019-05-28T08:11:11.255Z,87.93
2019-05-28T08:12:11.170Z,87.50
2019-05-28T08:13:11.078Z,87.12
2019-05-28T08:14:10.995Z,87.31
2019-05-28T08:15:10.907Z,88.27
2019-05-28T08:16:18.065Z,88.37
2019-05-28T08:17:10.728Z,86.93
2019-05-28T08:18:10.644Z,86.74
2019-05-28T08:19:10.556Z,86.11
2019-05-28T08:20:10.477Z,85.44
2019-05-28T08:21:10.388Z,86.30
2019-05-28T08:22:13.545Z,86.30
2019-05-28T08:23:10.209Z,84.95
2019-05-28T08:24:10.139Z,85.00
2019-05-28T08:25:27.504Z,84.61
2019-05-28T08:26:09.987Z,83.85
2019-05-28T08:27:09.882Z,84.14
2019-05-28T08:28:19.720Z,84.04
2019-05-28T08:29:09.703Z,84.67
2019-05-28T08:30:09.614Z,85.34
2019-05-28T08:31:16.007Z,84.77
2019-05-28T08:32:09.449Z,85.15
2019-05-28T08:33:09.667Z,84.09
2019-05-28T08:34:09.320Z,83.71
2019-05-28T08:35:09.197Z,83.81
2019-05-28T08:36:09.113Z,84.19
2019-05-28T08:37:09.023Z,84.04
2019-05-28T08:38:08.934Z,84.71
2019-05-28T08:39:08.954Z,84.81
2019-05-28T08:40:08.767Z,85.77
2019-05-28T08:41:08.687Z,85.67
2019-05-28T08:42:08.587Z,84.19
2019-05-28T08:43:08.518Z,84.67
2019-05-28T08:44:08.425Z,85.15
2019-05-28T08:45:08.337Z,85.53
2019-05-28T08:46:08.251Z,85.48
2019-05-28T08:47:08.195Z,85.86
2019-05-28T08:48:08.079Z,84.04
2019-05-28T08:49:08.003Z,84.14
2019-05-28T08:50:07.937Z,85.15
2019-05-28T08:51:10.237Z,84.48
2019-05-28T08:52:07.751Z,84.86
2019-05-28T08:53:07.662Z,84.48
2019-05-28T08:54:07.595Z,85.15
2019-05-28T08:55:07.503Z,85.34
2019-05-28T08:56:07.400Z,84.95
2019-05-28T08:57:07.341Z,86.01
2019-05-28T08:58:07.291Z,86.58
2019-05-28T08:59:07.155Z,88.12
2019-05-28T09:00:07.092Z,87.16
2019-05-28T09:01:06.976Z,85.82
2019-05-28T09:02:16.708Z,85.63
2019-05-28T09:03:06.808Z,85.05
2019-05-28T09:04:06.716Z,84.77
2019-05-28T09:05:24.514Z,84.48
2019-05-28T09:06:06.567Z,86.21
2019-05-28T09:07:06.460Z,86.49
2019-05-28T09:08:06.381Z,86.30
2019-05-28T09:09:06.301Z,85.44
2019-05-28T09:10:06.215Z,85.82
2019-05-28T09:11:06.138Z,85.63
2019-05-28T09:12:09.010Z,86.54
2019-05-28T09:13:05.946Z,85.19
2019-05-28T09:14:05.865Z,84.52
2019-05-28T09:15:05.835Z,84.33
2019-05-28T09:16:05.693Z,84.42
2019-05-28T09:17:05.710Z,84.52
2019-05-28T09:18:05.688Z,83.85
2019-05-28T09:19:05.460Z,83.37
2019-05-28T09:20:05.374Z,82.12
2019-05-28T09:21:05.347Z,82.60
2019-05-28T09:22:05.187Z,82.60
2019-05-28T09:23:05.100Z,83.65
2019-05-28T09:24:05.013Z,82.41
2019-05-28T09:25:04.937Z,82.70
2019-05-28T09:26:04.850Z,81.16
2019-05-28T09:27:04.774Z,80.49
2019-05-28T09:28:04.666Z,80.97
2019-05-28T09:29:04.592Z,81.54
2019-05-28T09:30:04.504Z,82.03
2019-05-28T09:31:04.417Z,82.12
2019-05-28T09:32:04.335Z,82.98
2019-05-28T09:33:04.267Z,83.47
2019-05-28T09:34:04.166Z,84.42
2019-05-28T09:35:04.086Z,83.08
2019-05-28T09:36:08.727Z,82.54
2019-05-28T09:37:03.906Z,80.15
2019-05-28T09:38:03.862Z,79.76
2019-05-28T09:39:03.744Z,79.52
2019-05-28T09:40:03.672Z,79.86
2019-05-28T09:41:05.982Z,81.01
2019-05-28T09:42:03.497Z,82.16
2019-05-28T09:43:03.397Z,81.10
2019-05-28T09:44:03.317Z,80.43
2019-05-28T09:45:19.403Z,79.63
2019-05-28T09:46:03.142Z,81.10
2019-05-28T09:47:03.055Z,78.77
2019-05-28T09:48:02.980Z,78.09
2019-05-28T09:49:02.885Z,77.23
2019-05-28T09:50:02.804Z,75.89
2019-05-28T09:51:02.726Z,74.35
2019-05-28T09:52:02.632Z,74.73
2019-05-28T09:53:02.762Z,76.37
2019-05-28T09:54:02.518Z,77.17
2019-05-28T09:55:02.400Z,76.12
2019-05-28T09:56:02.299Z,75.79
2019-05-28T09:57:02.213Z,76.17
2019-05-28T09:58:02.126Z,73.97
2019-05-28T09:59:02.037Z,73.77
2019-05-28T10:00:01.958Z,73.91
2019-05-28T10:01:01.867Z,72.31
2019-05-28T10:02:01.784Z,71.45
2019-05-28T10:03:01.706Z,70.58
2019-05-28T10:04:01.652Z,70.29
2019-05-28T10:05:01.524Z,69.49
2019-05-28T10:06:15.708Z,68.24
2019-05-28T10:07:01.410Z,70.29
2019-05-28T10:08:01.278Z,72.60
2019-05-28T10:09:01.202Z,72.60
2019-05-28T10:10:01.098Z,73.56
2019-05-28T10:11:01.023Z,73.27
2019-05-28T10:12:00.938Z,72.83
2019-05-28T10:13:00.885Z,72.69
2019-05-28T10:14:00.764Z,72.89
2019-05-28T10:15:00.687Z,72.89
2019-05-28T10:16:00.595Z,70.01
2019-05-28T10:17:00.513Z,67.00
2019-05-28T10:18:00.421Z,67.70
2019-05-28T10:19:00.339Z,67.76
2019-05-28T10:20:00.261Z,69.49
2019-05-28T10:21:16.963Z,69.11
2019-05-28T10:22:00.093Z,68.28
2019-05-28T10:23:00.043Z,67.90
2019-05-28T10:23:59.913Z,69.43
2019-05-28T10:24:59.835Z,68.57
2019-05-28T10:25:59.761Z,67.80
2019-05-28T10:26:59.661Z,67.03
2019-05-28T10:28:01.732Z,65.59
2019-05-28T10:28:59.501Z,65.05
2019-05-28T10:29:59.429Z,66.58
2019-05-28T10:30:59.321Z,66.30
2019-05-28T10:31:59.236Z,68.12
2019-05-28T10:32:59.163Z,68.98
2019-05-28T10:33:59.075Z,69.46
2019-05-28T10:35:03.831Z,68.08
2019-05-28T10:35:58.905Z,71.06
2019-05-28T10:36:58.821Z,73.08
2019-05-28T10:37:58.820Z,71.45
2019-05-28T10:38:58.645Z,70.01
2019-05-28T10:39:58.570Z,69.43
2019-05-28T10:40:58.484Z,67.03
2019-05-28T10:41:58.403Z,67.93
2019-05-28T10:42:58.321Z,68.21
2019-05-28T10:43:58.257Z,70.07
2019-05-28T10:44:58.161Z,74.30
2019-05-28T10:45:58.180Z,73.92
2019-05-28T10:46:57.980Z,70.37
2019-05-28T10:47:57.898Z,68.35
2019-05-28T10:48:57.808Z,66.71
2019-05-28T10:49:57.771Z,70.37
2019-05-28T10:50:57.642Z,70.40
2019-05-28T10:51:57.565Z,69.44
2019-05-28T10:52:57.476Z,67.90
2019-05-28T10:53:57.414Z,67.80
2019-05-28T10:54:57.304Z,70.21
2019-05-28T10:55:57.222Z,72.38
2019-05-28T10:56:57.157Z,73.11
2019-05-28T10:57:57.054Z,73.92
2019-05-28T10:58:56.965Z,74.46
2019-05-28T10:59:56.915Z,74.30
2019-05-28T11:00:56.802Z,73.88
2019-05-28T11:01:56.734Z,74.94
2019-05-28T11:02:56.646Z,74.04
2019-05-28T11:03:56.568Z,75.29
2019-05-28T11:04:56.539Z,74.90
2019-05-28T11:05:56.378Z,74.75
2019-05-28T11:06:56.297Z,74.85
2019-05-28T11:07:56.227Z,72.77
2019-05-28T11:08:56.125Z,71.52
2019-05-28T11:09:56.109Z,70.17
2019-05-28T11:10:55.960Z,69.40
2019-05-28T11:11:55.891Z,70.07
2019-05-28T11:12:55.787Z,70.43
2019-05-28T11:13:55.704Z,71.29
2019-05-28T11:14:55.620Z,70.14
2019-05-28T11:15:55.540Z,69.18
2019-05-28T11:16:55.462Z,68.31
2019-05-28T11:17:55.374Z,70.81
2019-05-28T11:18:55.296Z,72.73
2019-05-28T11:19:55.203Z,73.69
2019-05-28T11:20:55.134Z,74.37
2019-05-28T11:21:55.053Z,73.60
2019-05-28T11:22:54.939Z,73.79
2019-05-28T11:23:54.868Z,74.46
2019-05-28T11:24:54.775Z,74.37
2019-05-28T11:25:54.704Z,75.32
2019-05-28T11:26:54.641Z,75.10
2019-05-28T11:27:54.544Z,75.20
2019-05-28T11:28:54.444Z,75.04
2019-05-28T11:29:54.373Z,74.27
2019-05-28T11:30:54.282Z,73.69
2019-05-28T11:31:54.200Z,74.27
2019-05-28T11:32:54.111Z,73.41
2019-05-28T11:33:54.020Z,73.98
2019-05-28T11:34:53.933Z,75.10
2019-05-28T11:35:53.863Z,75.10
2019-05-28T11:37:08.308Z,75.13
2019-05-28T11:37:53.688Z,74.90
2019-05-28T11:38:53.603Z,75.29
2019-05-28T11:39:53.537Z,75.32
2019-05-28T11:40:53.437Z,74.75
2019-05-28T11:41:53.347Z,73.79
2019-05-28T11:42:53.262Z,73.88
2019-05-28T11:43:53.205Z,73.79
2019-05-28T11:44:53.107Z,73.50
2019-05-28T11:45:53.005Z,73.69
2019-05-28T11:46:52.941Z,73.60
2019-05-28T11:47:52.846Z,74.30
2019-05-28T11:48:52.770Z,73.21
2019-05-28T11:49:52.671Z,73.60
2019-05-28T11:50:52.597Z,73.50
2019-05-28T11:51:52.521Z,74.85
2019-05-28T11:52:52.419Z,74.94
2019-05-28T11:53:52.338Z,74.17
2019-05-28T11:54:52.272Z,73.69
2019-05-28T11:55:52.185Z,73.31
2019-05-28T11:56:52.091Z,72.92
2019-05-28T11:57:52.005Z,71.23
2019-05-28T11:58:51.936Z,71.19
2019-05-28T11:59:51.856Z,71.58
2019-05-28T12:00:51.781Z,71.52
2019-05-28T12:01:51.662Z,71.33
2019-05-28T12:02:51.581Z,71.42
2019-05-28T12:03:51.502Z,71.29
2019-05-28T12:04:51.408Z,73.15
2019-05-28T12:05:51.331Z,73.06
2019-05-28T12:06:51.245Z,71.91
2019-05-28T12:07:51.990Z,72.09
2019-05-28T12:08:51.070Z,72.16
2019-05-28T12:09:50.994Z,73.50
2019-05-28T12:10:50.946Z,73.60
2019-05-28T12:11:50.822Z,73.02
2019-05-28T12:12:50.753Z,72.34
2019-05-28T12:13:50.656Z,71.91
2019-05-28T12:14:50.574Z,71.81
2019-05-28T12:15:50.503Z,71.39
2019-05-28T12:16:50.410Z,72.06
2019-05-28T12:17:50.325Z,73.25
2019-05-28T12:18:50.233Z,72.38
2019-05-28T12:19:50.148Z,73.06
2019-05-28T12:20:50.091Z,73.69
2019-05-28T12:21:50.017Z,72.92
2019-05-28T12:23:08.911Z,73.11
2019-05-28T12:23:49.822Z,73.46
2019-05-28T12:24:49.729Z,74.13
2019-05-28T12:25:49.691Z,74.08
2019-05-28T12:26:49.659Z,73.88
2019-05-28T12:27:49.494Z,74.17
2019-05-28T12:28:49.393Z,74.46
2019-05-28T12:29:52.211Z,73.69
2019-05-28T12:30:49.224Z,74.08
2019-05-28T12:31:49.140Z,73.50
2019-05-28T12:32:49.057Z,73.31
2019-05-28T12:33:49.024Z,73.88
2019-05-28T12:34:48.887Z,73.69
2019-05-28T12:35:48.801Z,73.69
2019-05-28T12:36:48.714Z,73.31
2019-05-28T12:37:50.399Z,73.98
2019-05-28T12:38:48.550Z,73.98
2019-05-28T12:39:48.466Z,73.92
2019-05-28T12:40:48.696Z,73.57
2019-05-28T12:42:01.041Z,73.57
2019-05-28T12:42:48.225Z,73.15
2019-05-28T12:43:48.125Z,72.86
2019-05-28T12:44:48.046Z,72.58
2019-05-28T12:45:47.957Z,73.19
2019-05-28T12:46:47.886Z,72.61
2019-05-28T12:48:07.220Z,71.52
2019-05-28T12:48:47.708Z,71.04
2019-05-28T12:49:47.631Z,72.00
2019-05-28T12:50:47.547Z,72.00